sensor_id;sensor_type;location;lat;lon;timestamp;pressure;altitude;pressure_sealevel;temperature;humidity
41254;BME280;26987;59.928;30.306;2023-01-23T00:01:22;103829.09;;;-4.35;99.04
41254;BME280;26987;59.928;30.306;2023-01-23T00:03:53;103845.38;;;-4.21;99.25
41254;BME280;26987;59.928;30.306;2023-01-23T00:06:22;103838.41;;;-4.22;99.66
41254;BME280;26987;59.928;30.306;2023-01-23T00:08:50;103833.81;;;-4.12;99.44
41254;BME280;26987;59.928;30.306;2023-01-23T00:11:20;103836.28;;;-4.04;98.52
41254;BME280;26987;59.928;30.306;2023-01-23T00:13:49;103793.69;;;-4.15;98.53
41254;BME280;26987;59.928;30.306;2023-01-23T00:16:18;103833.34;;;-3.92;97.31
41254;BME280;26987;59.928;30.306;2023-01-23T00:18:46;103793.63;;;-4.12;97.27
41254;BME280;26987;59.928;30.306;2023-01-23T00:21:17;103826.31;;;-3.89;97.47
41254;BME280;26987;59.928;30.306;2023-01-23T00:23:47;103816.03;;;-3.99;97.00
41254;BME280;26987;59.928;30.306;2023-01-23T00:26:17;103828.88;;;-3.86;97.27
41254;BME280;26987;59.928;30.306;2023-01-23T00:28:46;103822.81;;;-3.88;96.02
41254;BME280;26987;59.928;30.306;2023-01-23T00:31:15;103837.50;;;-3.80;96.34
41254;BME280;26987;59.928;30.306;2023-01-23T00:33:44;103827.81;;;-3.77;95.99
41254;BME280;26987;59.928;30.306;2023-01-23T00:36:13;103754.38;;;-4.15;96.29
41254;BME280;26987;59.928;30.306;2023-01-23T00:38:43;103835.50;;;-3.70;95.57
41254;BME280;26987;59.928;30.306;2023-01-23T00:41:14;103831.91;;;-3.65;95.56
41254;BME280;26987;59.928;30.306;2023-01-23T00:43:41;103842.34;;;-3.64;95.64
41254;BME280;26987;59.928;30.306;2023-01-23T00:46:10;103827.88;;;-3.81;95.64
41254;BME280;26987;59.928;30.306;2023-01-23T00:48:39;103844.63;;;-3.86;95.30
41254;BME280;26987;59.928;30.306;2023-01-23T00:51:07;103845.69;;;-3.95;96.16
41254;BME280;26987;59.928;30.306;2023-01-23T00:53:35;103843.25;;;-4.03;96.14
41254;BME280;26987;59.928;30.306;2023-01-23T00:56:05;103826.59;;;-4.02;96.31
41254;BME280;26987;59.928;30.306;2023-01-23T00:58:34;103840.44;;;-3.95;96.15
41254;BME280;26987;59.928;30.306;2023-01-23T01:01:02;103844.75;;;-3.93;95.50
41254;BME280;26987;59.928;30.306;2023-01-23T01:03:32;103846.59;;;-3.96;95.82
41254;BME280;26987;59.928;30.306;2023-01-23T01:06:01;103832.72;;;-4.01;96.51
41254;BME280;26987;59.928;30.306;2023-01-23T01:08:29;103831.81;;;-4.00;96.56
41254;BME280;26987;59.928;30.306;2023-01-23T01:10:57;103818.78;;;-4.05;96.57
41254;BME280;26987;59.928;30.306;2023-01-23T01:13:26;103813.28;;;-3.93;96.40
41254;BME280;26987;59.928;30.306;2023-01-23T01:15:55;103814.91;;;-3.87;96.52
41254;BME280;26987;59.928;30.306;2023-01-23T01:18:28;103817.50;;;-3.85;96.11
41254;BME280;26987;59.928;30.306;2023-01-23T01:20:57;103767.28;;;-4.06;95.95
41254;BME280;26987;59.928;30.306;2023-01-23T01:23:25;103781.97;;;-3.99;96.13
41254;BME280;26987;59.928;30.306;2023-01-23T01:25:57;103799.94;;;-3.82;97.06
41254;BME280;26987;59.928;30.306;2023-01-23T01:28:27;103796.38;;;-3.79;96.88
41254;BME280;26987;59.928;30.306;2023-01-23T01:30:56;103787.38;;;-3.69;97.13
41254;BME280;26987;59.928;30.306;2023-01-23T01:33:27;103796.81;;;-3.61;96.55
41254;BME280;26987;59.928;30.306;2023-01-23T01:35:55;103798.63;;;-3.63;96.26
41254;BME280;26987;59.928;30.306;2023-01-23T01:38:23;103803.94;;;-3.67;96.11
41254;BME280;26987;59.928;30.306;2023-01-23T01:40:52;103802.25;;;-3.68;96.74
41254;BME280;26987;59.928;30.306;2023-01-23T01:43:22;103797.75;;;-3.64;96.59
41254;BME280;26987;59.928;30.306;2023-01-23T01:46:12;103795.75;;;-3.52;97.27
41254;BME280;26987;59.928;30.306;2023-01-23T01:48:44;103792.31;;;-3.56;96.44
41254;BME280;26987;59.928;30.306;2023-01-23T01:51:20;103794.84;;;-3.51;97.00
41254;BME280;26987;59.928;30.306;2023-01-23T01:53:51;103752.53;;;-3.74;97.00
41254;BME280;26987;59.928;30.306;2023-01-23T01:56:21;103790.69;;;-3.60;96.56
41254;BME280;26987;59.928;30.306;2023-01-23T01:58:51;103782.75;;;-3.57;96.52
41254;BME280;26987;59.928;30.306;2023-01-23T02:01:21;103781.75;;;-3.53;97.20
41254;BME280;26987;59.928;30.306;2023-01-23T02:03:49;103802.00;;;-3.58;96.40
41254;BME280;26987;59.928;30.306;2023-01-23T02:06:18;103792.44;;;-3.61;96.71
41254;BME280;26987;59.928;30.306;2023-01-23T02:08:51;103781.25;;;-3.68;97.01
41254;BME280;26987;59.928;30.306;2023-01-23T02:11:20;103786.31;;;-3.61;97.90
41254;BME280;26987;59.928;30.306;2023-01-23T02:13:49;103776.72;;;-3.62;96.73
41254;BME280;26987;59.928;30.306;2023-01-23T02:16:25;103787.03;;;-3.55;96.67
41254;BME280;26987;59.928;30.306;2023-01-23T02:19:00;103786.16;;;-3.55;96.69
41254;BME280;26987;59.928;30.306;2023-01-23T02:21:29;103768.88;;;-3.62;96.34
41254;BME280;26987;59.928;30.306;2023-01-23T02:24:12;103758.56;;;-3.70;96.16
41254;BME280;26987;59.928;30.306;2023-01-23T02:26:44;103768.31;;;-3.75;96.08
41254;BME280;26987;59.928;30.306;2023-01-23T02:29:14;103770.97;;;-3.77;96.84
41254;BME280;26987;59.928;30.306;2023-01-23T02:31:49;103760.41;;;-3.74;96.79
41254;BME280;26987;59.928;30.306;2023-01-23T02:34:20;103765.63;;;-3.72;96.77
41254;BME280;26987;59.928;30.306;2023-01-23T02:36:53;103779.44;;;-3.65;97.20
41254;BME280;26987;59.928;30.306;2023-01-23T02:39:21;103784.66;;;-3.64;96.66
41254;BME280;26987;59.928;30.306;2023-01-23T02:41:55;103799.56;;;-3.66;96.15
41254;BME280;26987;59.928;30.306;2023-01-23T02:44:36;103804.06;;;-3.71;95.71
41254;BME280;26987;59.928;30.306;2023-01-23T02:47:06;103812.75;;;-3.69;96.56
41254;BME280;26987;59.928;30.306;2023-01-23T02:49:37;103795.38;;;-3.75;95.81
41254;BME280;26987;59.928;30.306;2023-01-23T02:52:06;103771.41;;;-3.96;95.45
41254;BME280;26987;59.928;30.306;2023-01-23T02:54:35;103698.28;;;-4.46;95.33
41254;BME280;26987;59.928;30.306;2023-01-23T02:57:06;103802.44;;;-3.77;95.68
41254;BME280;26987;59.928;30.306;2023-01-23T02:59:34;103803.28;;;-3.76;96.25
41254;BME280;26987;59.928;30.306;2023-01-23T03:02:20;103786.66;;;-3.74;96.09
41254;BME280;26987;59.928;30.306;2023-01-23T03:04:48;103785.66;;;-3.70;95.85
41254;BME280;26987;59.928;30.306;2023-01-23T03:07:16;103776.06;;;-3.71;95.36
41254;BME280;26987;59.928;30.306;2023-01-23T03:09:44;103781.16;;;-3.64;95.71
41254;BME280;26987;59.928;30.306;2023-01-23T03:12:15;103774.03;;;-3.59;96.39
41254;BME280;26987;59.928;30.306;2023-01-23T03:14:43;103780.13;;;-3.57;95.96
41254;BME280;26987;59.928;30.306;2023-01-23T03:17:11;103780.91;;;-3.55;96.01
41254;BME280;26987;59.928;30.306;2023-01-23T03:19:41;103767.22;;;-3.67;95.34
41254;BME280;26987;59.928;30.306;2023-01-23T03:22:09;103773.13;;;-3.58;95.43
41254;BME280;26987;59.928;30.306;2023-01-23T03:24:38;103768.88;;;-3.62;95.76
41254;BME280;26987;59.928;30.306;2023-01-23T03:27:07;103744.03;;;-3.84;96.02
41254;BME280;26987;59.928;30.306;2023-01-23T03:29:42;103782.13;;;-3.69;96.74
41254;BME280;26987;59.928;30.306;2023-01-23T03:32:28;103783.69;;;-3.61;97.33
41254;BME280;26987;59.928;30.306;2023-01-23T03:34:57;103777.53;;;-3.59;97.27
41254;BME280;26987;59.928;30.306;2023-01-23T03:37:25;103781.97;;;-3.62;96.84
41254;BME280;26987;59.928;30.306;2023-01-23T03:39:54;103791.47;;;-3.57;98.18
41254;BME280;26987;59.928;30.306;2023-01-23T03:42:39;103793.13;;;-3.52;97.54
41254;BME280;26987;59.928;30.306;2023-01-23T03:45:11;103797.34;;;-3.47;98.10
41254;BME280;26987;59.928;30.306;2023-01-23T03:47:39;103790.25;;;-3.43;97.74
41254;BME280;26987;59.928;30.306;2023-01-23T03:50:08;103791.22;;;-3.47;97.46
41254;BME280;26987;59.928;30.306;2023-01-23T03:52:39;103776.81;;;-3.65;98.02
41254;BME280;26987;59.928;30.306;2023-01-23T03:55:08;103782.72;;;-3.56;97.84
41254;BME280;26987;59.928;30.306;2023-01-23T03:57:37;103792.31;;;-3.56;98.07
41254;BME280;26987;59.928;30.306;2023-01-23T04:00:06;103781.00;;;-3.58;98.57
41254;BME280;26987;59.928;30.306;2023-01-23T04:02:45;103772.41;;;-3.63;98.93
41254;BME280;26987;59.928;30.306;2023-01-23T04:05:14;103752.91;;;-3.89;98.97
41254;BME280;26987;59.928;30.306;2023-01-23T04:07:43;103794.22;;;-3.63;99.52
41254;BME280;26987;59.928;30.306;2023-01-23T04:10:10;103796.66;;;-3.55;99.77
41254;BME280;26987;59.928;30.306;2023-01-23T04:12:41;103767.22;;;-3.67;99.69
41254;BME280;26987;59.928;30.306;2023-01-23T04:15:10;103784.53;;;-3.59;99.65
41254;BME280;26987;59.928;30.306;2023-01-23T04:17:38;103777.09;;;-3.78;99.55
41254;BME280;26987;59.928;30.306;2023-01-23T04:20:09;103790.34;;;-3.83;99.29
41254;BME280;26987;59.928;30.306;2023-01-23T04:22:40;103787.28;;;-4.02;100.00
41254;BME280;26987;59.928;30.306;2023-01-23T04:25:08;103793.66;;;-4.14;100.00
41254;BME280;26987;59.928;30.306;2023-01-23T04:27:36;103786.00;;;-4.22;100.00
41254;BME280;26987;59.928;30.306;2023-01-23T04:30:06;103777.47;;;-4.33;100.00
41254;BME280;26987;59.928;30.306;2023-01-23T04:32:35;103783.44;;;-4.25;100.00
41254;BME280;26987;59.928;30.306;2023-01-23T04:35:03;103785.88;;;-4.19;100.00
41254;BME280;26987;59.928;30.306;2023-01-23T04:37:33;103776.06;;;-4.09;100.00
41254;BME280;26987;59.928;30.306;2023-01-23T04:40:02;103774.06;;;-3.97;100.00
41254;BME280;26987;59.928;30.306;2023-01-23T04:42:39;103774.88;;;-3.94;100.00
41254;BME280;26987;59.928;30.306;2023-01-23T04:45:11;103768.69;;;-3.91;100.00
41254;BME280;26987;59.928;30.306;2023-01-23T04:47:59;103777.06;;;-3.76;100.00
41254;BME280;26987;59.928;30.306;2023-01-23T04:50:27;103768.88;;;-3.62;100.00
41254;BME280;26987;59.928;30.306;2023-01-23T04:52:57;103770.34;;;-3.52;100.00
41254;BME280;26987;59.928;30.306;2023-01-23T04:55:25;103766.78;;;-3.49;100.00
41254;BME280;26987;59.928;30.306;2023-01-23T04:57:54;103756.50;;;-3.57;99.56
41254;BME280;26987;59.928;30.306;2023-01-23T05:00:25;103757.50;;;-3.63;99.18
41254;BME280;26987;59.928;30.306;2023-01-23T05:02:56;103756.91;;;-3.74;99.14
41254;BME280;26987;59.928;30.306;2023-01-23T05:05:25;103764.59;;;-3.67;99.74
41254;BME280;26987;59.928;30.306;2023-01-23T05:07:59;103767.16;;;-3.63;100.00
41254;BME280;26987;59.928;30.306;2023-01-23T05:10:28;103756.72;;;-3.67;100.00
41254;BME280;26987;59.928;30.306;2023-01-23T05:13:02;103745.22;;;-3.61;100.00
41254;BME280;26987;59.928;30.306;2023-01-23T05:15:30;103713.34;;;-3.80;99.66
41254;BME280;26987;59.928;30.306;2023-01-23T05:17:58;103757.13;;;-3.47;99.70
41254;BME280;26987;59.928;30.306;2023-01-23T05:20:26;103757.84;;;-3.40;99.51
41254;BME280;26987;59.928;30.306;2023-01-23T05:23:00;103760.41;;;-3.39;99.75
41254;BME280;26987;59.928;30.306;2023-01-23T05:25:36;103760.50;;;-3.42;99.27
41254;BME280;26987;59.928;30.306;2023-01-23T05:28:04;103759.63;;;-3.43;99.33
41254;BME280;26987;59.928;30.306;2023-01-23T05:30:33;103751.88;;;-3.47;98.90
41254;BME280;26987;59.928;30.306;2023-01-23T05:33:17;103756.25;;;-3.48;97.97
41254;BME280;26987;59.928;30.306;2023-01-23T05:35:45;103758.38;;;-3.62;97.49
41254;BME280;26987;59.928;30.306;2023-01-23T05:38:15;103761.06;;;-3.65;98.65
41254;BME280;26987;59.928;30.306;2023-01-23T05:40:43;103747.34;;;-3.75;98.97
41254;BME280;26987;59.928;30.306;2023-01-23T05:43:14;103770.56;;;-3.61;98.51
41254;BME280;26987;59.928;30.306;2023-01-23T05:46:00;103737.31;;;-3.96;98.40
41254;BME280;26987;59.928;30.306;2023-01-23T05:48:48;103756.75;;;-4.05;99.29
41254;BME280;26987;59.928;30.306;2023-01-23T05:51:17;103761.94;;;-4.01;100.00
41254;BME280;26987;59.928;30.306;2023-01-23T05:53:46;103766.47;;;-4.08;100.00
41254;BME280;26987;59.928;30.306;2023-01-23T05:56:14;103758.88;;;-4.21;100.00
41254;BME280;26987;59.928;30.306;2023-01-23T05:59:08;103766.94;;;-4.30;100.00
41254;BME280;26987;59.928;30.306;2023-01-23T06:01:45;103763.28;;;-4.23;100.00
41254;BME280;26987;59.928;30.306;2023-01-23T06:04:32;103765.75;;;-4.16;100.00
41254;BME280;26987;59.928;30.306;2023-01-23T06:07:22;103761.41;;;-4.16;100.00
41254;BME280;26987;59.928;30.306;2023-01-23T06:09:56;103770.63;;;-3.99;100.00
41254;BME280;26987;59.928;30.306;2023-01-23T06:12:24;103776.50;;;-3.89;100.00
41254;BME280;26987;59.928;30.306;2023-01-23T06:14:52;103771.19;;;-3.86;100.00
41254;BME280;26987;59.928;30.306;2023-01-23T06:17:20;103765.88;;;-3.83;100.00
41254;BME280;26987;59.928;30.306;2023-01-23T06:19:48;103774.41;;;-3.75;100.00
41254;BME280;26987;59.928;30.306;2023-01-23T06:22:16;103761.16;;;-3.69;100.00
41254;BME280;26987;59.928;30.306;2023-01-23T06:25:09;103772.41;;;-3.63;100.00
41254;BME280;26987;59.928;30.306;2023-01-23T06:27:37;103760.66;;;-3.85;100.00
41254;BME280;26987;59.928;30.306;2023-01-23T06:30:09;103782.03;;;-3.64;100.00
41254;BME280;26987;59.928;30.306;2023-01-23T06:32:42;103772.41;;;-3.63;100.00
41254;BME280;26987;59.928;30.306;2023-01-23T06:35:11;103770.72;;;-3.66;100.00
41254;BME280;26987;59.928;30.306;2023-01-23T06:37:41;103718.34;;;-4.06;100.00
41254;BME280;26987;59.928;30.306;2023-01-23T06:40:14;103772.50;;;-3.68;100.00
41254;BME280;26987;59.928;30.306;2023-01-23T06:42:53;103773.06;;;-3.55;100.00
41254;BME280;26987;59.928;30.306;2023-01-23T06:45:22;103776.28;;;-3.44;100.00
41254;BME280;26987;59.928;30.306;2023-01-23T06:47:51;103782.34;;;-3.42;100.00
41254;BME280;26987;59.928;30.306;2023-01-23T06:50:19;103791.63;;;-3.28;100.00
41254;BME280;26987;59.928;30.306;2023-01-23T06:52:46;103796.09;;;-3.32;100.00
41254;BME280;26987;59.928;30.306;2023-01-23T06:55:16;103793.31;;;-3.25;99.79
41254;BME280;26987;59.928;30.306;2023-01-23T06:57:44;103781.78;;;-3.20;99.28
41254;BME280;26987;59.928;30.306;2023-01-23T07:00:13;103780.72;;;-3.12;99.02
41254;BME280;26987;59.928;30.306;2023-01-23T07:02:42;103781.56;;;-3.10;99.31
41254;BME280;26987;59.928;30.306;2023-01-23T07:05:10;103763.53;;;-3.24;98.28
41254;BME280;26987;59.928;30.306;2023-01-23T07:07:38;103786.59;;;-3.04;98.73
41254;BME280;26987;59.928;30.306;2023-01-23T07:10:07;103782.06;;;-2.97;98.41
41254;BME280;26987;59.928;30.306;2023-01-23T07:12:36;103795.13;;;-2.94;97.55
41254;BME280;26987;59.928;30.306;2023-01-23T07:15:06;103782.19;;;-3.02;97.24
41254;BME280;26987;59.928;30.306;2023-01-23T07:17:40;103791.75;;;-2.99;97.61
41254;BME280;26987;59.928;30.306;2023-01-23T07:20:09;103787.31;;;-2.97;98.18
41254;BME280;26987;59.928;30.306;2023-01-23T07:22:43;103777.56;;;-2.94;97.64
41254;BME280;26987;59.928;30.306;2023-01-23T07:25:10;103779.41;;;-2.96;97.78
41254;BME280;26987;59.928;30.306;2023-01-23T07:27:40;103776.72;;;-2.94;97.88
41254;BME280;26987;59.928;30.306;2023-01-23T07:30:09;103772.44;;;-2.97;98.00
41254;BME280;26987;59.928;30.306;2023-01-23T07:32:37;103770.53;;;-2.92;97.70
41254;BME280;26987;59.928;30.306;2023-01-23T07:35:06;103767.19;;;-2.97;97.17
41254;BME280;26987;59.928;30.306;2023-01-23T07:37:34;103762.94;;;-3.02;98.05
41254;BME280;26987;59.928;30.306;2023-01-23T07:40:02;103747.19;;;-3.02;98.27
41254;BME280;26987;59.928;30.306;2023-01-23T07:42:30;103761.06;;;-2.97;98.29
41254;BME280;26987;59.928;30.306;2023-01-23T07:44:59;103754.94;;;-2.98;98.29
41254;BME280;26987;59.928;30.306;2023-01-23T07:47:27;103752.38;;;-3.01;97.48
41254;BME280;26987;59.928;30.306;2023-01-23T07:49:55;103755.06;;;-3.02;98.24
41254;BME280;26987;59.928;30.306;2023-01-23T07:52:23;103754.13;;;-3.00;98.21
41254;BME280;26987;59.928;30.306;2023-01-23T07:54:51;103749.66;;;-2.96;98.03
41254;BME280;26987;59.928;30.306;2023-01-23T07:57:18;103756.41;;;-2.87;97.77
41254;BME280;26987;59.928;30.306;2023-01-23T07:59:46;103756.47;;;-2.91;97.76
41254;BME280;26987;59.928;30.306;2023-01-23T08:02:16;103746.75;;;-2.87;97.72
41254;BME280;26987;59.928;30.306;2023-01-23T08:04:43;103747.63;;;-2.86;97.92
41254;BME280;26987;59.928;30.306;2023-01-23T08:07:11;103747.56;;;-2.83;97.29
41254;BME280;26987;59.928;30.306;2023-01-23T08:09:39;103733.63;;;-2.87;96.75
41254;BME280;26987;59.928;30.306;2023-01-23T08:12:07;103749.19;;;-2.79;97.05
41254;BME280;26987;59.928;30.306;2023-01-23T08:14:35;103749.19;;;-2.79;97.60
41254;BME280;26987;59.928;30.306;2023-01-23T08:17:03;103737.72;;;-2.76;97.12
41254;BME280;26987;59.928;30.306;2023-01-23T08:19:33;103733.25;;;-2.73;97.39
41254;BME280;26987;59.928;30.306;2023-01-23T08:22:01;103745.50;;;-2.73;96.99
41254;BME280;26987;59.928;30.306;2023-01-23T08:24:28;103741.13;;;-2.73;97.25
41254;BME280;26987;59.928;30.306;2023-01-23T08:26:57;103733.31;;;-2.76;97.22
41254;BME280;26987;59.928;30.306;2023-01-23T08:29:25;103731.59;;;-2.77;97.38
41254;BME280;26987;59.928;30.306;2023-01-23T08:31:53;103748.66;;;-2.62;96.94
41254;BME280;26987;59.928;30.306;2023-01-23T08:34:21;103743.50;;;-2.65;96.66
41254;BME280;26987;59.928;30.306;2023-01-23T08:36:51;103746.66;;;-2.52;96.57
41254;BME280;26987;59.928;30.306;2023-01-23T08:39:19;103735.41;;;-2.57;96.40
41254;BME280;26987;59.928;30.306;2023-01-23T08:41:47;103741.59;;;-2.60;95.88
41254;BME280;26987;59.928;30.306;2023-01-23T08:44:14;103741.59;;;-2.60;95.96
41254;BME280;26987;59.928;30.306;2023-01-23T08:46:44;103743.38;;;-2.60;96.04
41254;BME280;26987;59.928;30.306;2023-01-23T08:49:12;103747.97;;;-2.67;96.01
41254;BME280;26987;59.928;30.306;2023-01-23T08:51:40;103741.09;;;-2.71;96.08
41254;BME280;26987;59.928;30.306;2023-01-23T08:54:09;103746.00;;;-2.60;96.29
41254;BME280;26987;59.928;30.306;2023-01-23T08:56:37;103747.00;;;-2.64;95.15
41254;BME280;26987;59.928;30.306;2023-01-23T08:59:06;103745.19;;;-2.62;96.10
41254;BME280;26987;59.928;30.306;2023-01-23T09:01:35;103745.03;;;-2.56;96.16
41254;BME280;26987;59.928;30.306;2023-01-23T09:04:03;103748.53;;;-2.57;95.60
41254;BME280;26987;59.928;30.306;2023-01-23T09:06:30;103729.59;;;-2.69;95.07
41254;BME280;26987;59.928;30.306;2023-01-23T09:08:58;103728.91;;;-2.75;94.70
41254;BME280;26987;59.928;30.306;2023-01-23T09:11:28;103745.38;;;-2.69;94.31
41254;BME280;26987;59.928;30.306;2023-01-23T09:13:55;103752.44;;;-2.71;94.07
41254;BME280;26987;59.928;30.306;2023-01-23T09:16:23;103756.94;;;-2.74;93.74
41254;BME280;26987;59.928;30.306;2023-01-23T09:18:53;103753.81;;;-2.89;93.79
41254;BME280;26987;59.928;30.306;2023-01-23T09:21:21;103754.13;;;-3.00;94.22
41254;BME280;26987;59.928;30.306;2023-01-23T09:23:49;103739.50;;;-3.09;94.62
41254;BME280;26987;59.928;30.306;2023-01-23T09:26:17;103754.84;;;-2.95;94.75
41254;BME280;26987;59.928;30.306;2023-01-23T09:28:46;103750.56;;;-2.97;94.33
41254;BME280;26987;59.928;30.306;2023-01-23T09:31:14;103743.91;;;-3.11;95.04
41254;BME280;26987;59.928;30.306;2023-01-23T09:33:42;103746.25;;;-3.00;95.69
41254;BME280;26987;59.928;30.306;2023-01-23T09:36:10;103756.84;;;-3.03;95.02
41254;BME280;26987;59.928;30.306;2023-01-23T09:38:38;103753.31;;;-3.02;96.08
41254;BME280;26987;59.928;30.306;2023-01-23T09:41:09;103762.81;;;-2.98;95.36
41254;BME280;26987;59.928;30.306;2023-01-23T09:43:43;103746.94;;;-2.93;95.91
41254;BME280;26987;59.928;30.306;2023-01-23T09:46:20;103745.88;;;-2.87;95.30
41254;BME280;26987;59.928;30.306;2023-01-23T09:48:53;103743.56;;;-2.97;94.74
41254;BME280;26987;59.928;30.306;2023-01-23T09:51:25;103735.09;;;-3.08;95.22
41254;BME280;26987;59.928;30.306;2023-01-23T09:53:58;103745.84;;;-3.18;95.92
41254;BME280;26987;59.928;30.306;2023-01-23T09:56:30;103732.16;;;-3.29;96.70
41254;BME280;26987;59.928;30.306;2023-01-23T09:59:09;103737.31;;;-3.26;96.63
41254;BME280;26987;59.928;30.306;2023-01-23T10:01:40;103703.66;;;-3.43;97.43
41254;BME280;26987;59.928;30.306;2023-01-23T10:04:10;103699.34;;;-3.46;97.09
41254;BME280;26987;59.928;30.306;2023-01-23T10:06:56;103738.03;;;-3.21;97.32
41254;BME280;26987;59.928;30.306;2023-01-23T10:09:39;103724.03;;;-3.20;97.41
41254;BME280;26987;59.928;30.306;2023-01-23T10:12:16;103724.84;;;-3.18;96.90
41254;BME280;26987;59.928;30.306;2023-01-23T10:15:04;103713.53;;;-3.20;97.11
41254;BME280;26987;59.928;30.306;2023-01-23T10:17:40;103696.44;;;-3.35;97.40
41254;BME280;26987;59.928;30.306;2023-01-23T10:20:21;103692.88;;;-3.32;97.82
41254;BME280;26987;59.928;30.306;2023-01-23T10:23:03;103702.94;;;-3.17;98.19
41254;BME280;26987;59.928;30.306;2023-01-23T10:25:34;103704.75;;;-3.19;98.09
41254;BME280;26987;59.928;30.306;2023-01-23T10:28:16;103697.41;;;-3.07;97.91
41254;BME280;26987;59.928;30.306;2023-01-23T10:30:47;103702.59;;;-3.04;97.55
41254;BME280;26987;59.928;30.306;2023-01-23T10:33:18;103697.53;;;-3.10;96.84
41254;BME280;26987;59.928;30.306;2023-01-23T10:35:48;103701.03;;;-3.11;97.09
41254;BME280;26987;59.928;30.306;2023-01-23T10:38:25;103717.47;;;-3.03;97.42
41254;BME280;26987;59.928;30.306;2023-01-23T10:40:53;103718.25;;;-3.01;97.34
41254;BME280;26987;59.928;30.306;2023-01-23T10:43:39;103706.91;;;-3.01;96.94
41254;BME280;26987;59.928;30.306;2023-01-23T10:46:09;103694.63;;;-3.01;96.67
41254;BME280;26987;59.928;30.306;2023-01-23T10:48:42;103692.13;;;-3.06;97.32
41254;BME280;26987;59.928;30.306;2023-01-23T10:51:32;103698.03;;;-2.97;97.31
41254;BME280;26987;59.928;30.306;2023-01-23T10:54:02;103699.16;;;-3.06;96.52
41254;BME280;26987;59.928;30.306;2023-01-23T10:56:32;103704.50;;;-3.09;96.57
41254;BME280;26987;59.928;30.306;2023-01-23T10:59:01;103701.03;;;-3.11;96.32
41254;BME280;26987;59.928;30.306;2023-01-23T11:01:32;103672.63;;;-3.27;97.13
41254;BME280;26987;59.928;30.306;2023-01-23T11:04:17;103704.91;;;-2.93;96.52
41254;BME280;26987;59.928;30.306;2023-01-23T11:06:59;103688.66;;;-3.06;97.02
41254;BME280;26987;59.928;30.306;2023-01-23T11:09:28;103634.50;;;-3.40;96.03
41254;BME280;26987;59.928;30.306;2023-01-23T11:12:02;103682.53;;;-3.07;96.67
41254;BME280;26987;59.928;30.306;2023-01-23T11:14:30;103658.84;;;-3.35;95.60
41254;BME280;26987;59.928;30.306;2023-01-23T11:17:00;103673.53;;;-3.30;95.70
41254;BME280;26987;59.928;30.306;2023-01-23T11:19:31;103679.56;;;-3.26;96.07
41254;BME280;26987;59.928;30.306;2023-01-23T11:22:01;103672.88;;;-3.36;96.31
41254;BME280;26987;59.928;30.306;2023-01-23T11:24:33;103651.47;;;-3.54;95.67
41254;BME280;26987;59.928;30.306;2023-01-23T11:27:04;103689.59;;;-3.40;95.81
41254;BME280;26987;59.928;30.306;2023-01-23T11:29:52;103684.94;;;-3.31;96.26
41254;BME280;26987;59.928;30.306;2023-01-23T11:32:22;103687.78;;;-3.38;96.50
41254;BME280;26987;59.928;30.306;2023-01-23T11:35:05;103685.03;;;-3.34;96.52
41254;BME280;26987;59.928;30.306;2023-01-23T11:37:38;103662.06;;;-3.57;95.66
41254;BME280;26987;59.928;30.306;2023-01-23T11:40:11;103680.03;;;-3.43;96.56
41254;BME280;26987;59.928;30.306;2023-01-23T11:42:40;103661.06;;;-3.53;96.02
41254;BME280;26987;59.928;30.306;2023-01-23T11:45:12;103669.69;;;-3.49;96.89
41254;BME280;26987;59.928;30.306;2023-01-23T11:47:58;103658.28;;;-3.47;96.70
41254;BME280;26987;59.928;30.306;2023-01-23T11:50:36;103659.50;;;-3.60;96.89
41254;BME280;26987;59.928;30.306;2023-01-23T11:53:20;103666.34;;;-3.55;97.20
41254;BME280;26987;59.928;30.306;2023-01-23T11:56:23;103672.81;;;-3.35;96.99
41254;BME280;26987;59.928;30.306;2023-01-23T11:59:11;103667.38;;;-3.27;96.98
41254;BME280;26987;59.928;30.306;2023-01-23T12:01:53;103667.28;;;-3.24;97.06
41254;BME280;26987;59.928;30.306;2023-01-23T12:04:38;103669.78;;;-3.21;96.13
41254;BME280;26987;59.928;30.306;2023-01-23T12:07:17;103664.50;;;-3.19;96.32
41254;BME280;26987;59.928;30.306;2023-01-23T12:09:56;103663.53;;;-3.15;96.03
41254;BME280;26987;59.928;30.306;2023-01-23T12:12:37;103665.13;;;-3.09;96.25
41254;BME280;26987;59.928;30.306;2023-01-23T12:15:17;103662.56;;;-3.12;96.02
41254;BME280;26987;59.928;30.306;2023-01-23T12:17:55;103679.78;;;-3.02;95.59
41254;BME280;26987;59.928;30.306;2023-01-23T12:20:32;103678.94;;;-3.04;94.88
41254;BME280;26987;59.928;30.306;2023-01-23T12:23:33;103681.22;;;-2.92;95.80
41254;BME280;26987;59.928;30.306;2023-01-23T12:26:11;103662.50;;;-3.09;95.05
41254;BME280;26987;59.928;30.306;2023-01-23T12:28:52;103680.66;;;-3.01;94.94
41254;BME280;26987;59.928;30.306;2023-01-23T12:31:36;103665.06;;;-3.08;95.39
41254;BME280;26987;59.928;30.306;2023-01-23T12:34:23;103658.69;;;-2.99;94.70
41254;BME280;26987;59.928;30.306;2023-01-23T12:37:16;103661.03;;;-2.89;94.60
41254;BME280;26987;59.928;30.306;2023-01-23T12:39:58;103652.56;;;-2.99;93.85
41254;BME280;26987;59.928;30.306;2023-01-23T12:42:33;103639.00;;;-3.14;94.15
41254;BME280;26987;59.928;30.306;2023-01-23T12:45:14;103635.41;;;-3.11;94.01
41254;BME280;26987;59.928;30.306;2023-01-23T12:47:48;103630.97;;;-3.09;93.23
41254;BME280;26987;59.928;30.306;2023-01-23T12:50:23;103641.41;;;-3.06;93.41
41254;BME280;26987;59.928;30.306;2023-01-23T12:52:58;103643.94;;;-3.03;92.79
41254;BME280;26987;59.928;30.306;2023-01-23T12:55:32;103643.03;;;-3.02;93.21
41254;BME280;26987;59.928;30.306;2023-01-23T12:58:02;103645.69;;;-3.04;92.03
41254;BME280;26987;59.928;30.306;2023-01-23T13:00:39;103649.16;;;-3.01;91.82
41254;BME280;26987;59.928;30.306;2023-01-23T13:03:21;103645.59;;;-3.00;91.87